Time;durP1;ratioP1;P1;durP2;ratioP2;P2;SDS_P1;SDS_P2;PMS_P1;PMS_P2;Temp;Humidity;BMP_temperature;BMP_pressure;BME280_temperature;BME280_humidity;BME280_pressure;Samples;Min_cycle;Max_cycle;Signal;HPM_P1;HPM_P2
2023/01/13 00:01:50;;;;;;;0.60;0.60;;;;;;;;;;6155118;23;20500;-77
2023/01/13 00:04:17;;;;;;;0.60;0.60;;;;;;;;;;6129995;23;20776;-79
2023/01/13 00:06:44;;;;;;;0.60;0.60;;;;;;;;;;6155593;23;20783;-78
2023/01/13 00:09:11;;;;;;;0.60;0.60;;;;;;;;;;6130152;23;20463;-79
2023/01/13 00:11:38;;;;;;;0.60;0.60;;;;;;;;;;6157119;23;20412;-77
2023/01/13 00:14:05;;;;;;;0.60;0.60;;;;;;;;;;6131146;23;20482;-77
2023/01/13 00:16:33;;;;;;;0.70;0.70;;;;;;;;;;6129491;23;20382;-80
2023/01/13 00:18:59;;;;;;;0.60;0.60;;;;;;;;;;6153686;23;20411;-78
2023/01/13 00:21:26;;;;;;;0.60;0.60;;;;;;;;;;6105008;23;20461;-77
2023/01/13 00:23:53;;;;;;;0.70;0.70;;;;;;;;;;6105824;23;20414;-79
2023/01/13 00:26:23;;;;;;;0.60;0.60;;;;;;;;;;6128931;23;20426;-78
2023/01/13 00:28:50;;;;;;;0.60;0.60;;;;;;;;;;6105869;23;20450;-78
2023/01/13 00:31:17;;;;;;;0.60;0.60;;;;;;;;;;6130491;23;20793;-79
2023/01/13 00:33:47;;;;;;;0.77;0.77;;;;;;;;;;6128884;23;20436;-78
2023/01/13 00:36:15;;;;;;;0.60;0.60;;;;;;;;;;6105548;23;20406;-77
2023/01/13 00:38:42;;;;;;;0.70;0.67;;;;;;;;;;6128923;23;20390;-76
2023/01/13 00:41:10;;;;;;;0.60;0.60;;;;;;;;;;6153632;23;20386;-78
2023/01/13 00:43:37;;;;;;;0.60;0.60;;;;;;;;;;6129653;23;20397;-78
2023/01/13 00:46:05;;;;;;;0.60;0.60;;;;;;;;;;6128072;23;20379;-78
2023/01/13 00:48:32;;;;;;;0.67;0.67;;;;;;;;;;6155514;23;20814;-78
2023/01/13 00:51:01;;;;;;;0.70;0.70;;;;;;;;;;6105440;23;20433;-79
2023/01/13 00:53:31;;;;;;;0.60;0.60;;;;;;;;;;6129325;23;20456;-79
2023/01/13 00:55:58;;;;;;;0.60;0.60;;;;;;;;;;6130085;23;20856;-79
2023/01/13 00:58:25;;;;;;;0.67;0.60;;;;;;;;;;6104691;23;20404;-80
2023/01/13 01:00:53;;;;;;;0.60;0.60;;;;;;;;;;6104643;23;20424;-78
2023/01/13 01:03:20;;;;;;;0.60;0.60;;;;;;;;;;6154523;23;20805;-80
2023/01/13 01:05:47;;;;;;;0.60;0.60;;;;;;;;;;6130042;23;20471;-79
2023/01/13 01:08:15;;;;;;;0.60;0.60;;;;;;;;;;6155766;23;20459;-79
2023/01/13 01:10:42;;;;;;;0.73;0.73;;;;;;;;;;6129107;23;20413;-79
2023/01/13 01:13:13;;;;;;;0.60;0.60;;;;;;;;;;6155387;23;20430;-78
2023/01/13 01:15:40;;;;;;;0.60;0.60;;;;;;;;;;6155541;23;20857;-79
2023/01/13 01:18:07;;;;;;;1.57;1.37;;;;;;;;;;6154791;23;20442;-77
2023/01/13 01:20:35;;;;;;;0.60;0.50;;;;;;;;;;6128342;23;20419;-79
2023/01/13 01:23:03;;;;;;;0.70;0.70;;;;;;;;;;6154862;23;20379;-78
2023/01/13 01:25:32;;;;;;;0.60;0.60;;;;;;;;;;6154875;23;20382;-78
2023/01/13 01:27:59;;;;;;;0.70;0.63;;;;;;;;;;6129466;23;20945;-79
2023/01/13 01:30:26;;;;;;;0.70;0.70;;;;;;;;;;6155418;23;20394;-80
2023/01/13 01:32:56;;;;;;;0.60;0.60;;;;;;;;;;6129800;23;20922;-80
2023/01/13 01:35:23;;;;;;;0.60;0.60;;;;;;;;;;6155847;23;20386;-77
2023/01/13 01:37:49;;;;;;;0.60;0.60;;;;;;;;;;6128951;23;20502;-77
2023/01/13 01:40:16;;;;;;;0.60;0.60;;;;;;;;;;6127822;23;20785;-79
2023/01/13 01:45:31;;;;;;;0.70;0.70;;;;;;;;;;6129505;23;20457;-77
2023/01/13 01:47:59;;;;;;;0.60;0.60;;;;;;;;;;6129594;23;20450;-78
2023/01/13 01:50:26;;;;;;;0.70;0.70;;;;;;;;;;6155059;23;20441;-77
2023/01/13 01:52:55;;;;;;;0.63;0.60;;;;;;;;;;6129223;23;20417;-77
2023/01/13 01:55:22;;;;;;;0.60;0.60;;;;;;;;;;6129868;23;20378;-79
2023/01/13 01:57:54;;;;;;;0.70;0.60;;;;;;;;;;6127931;23;20513;-78
2023/01/13 02:00:21;;;;;;;0.70;0.70;;;;;;;;;;6154109;23;20844;-78
2023/01/13 02:02:49;;;;;;;0.60;0.60;;;;;;;;;;6154500;23;20917;-78
2023/01/13 02:05:16;;;;;;;0.60;0.60;;;;;;;;;;6129655;23;20397;-79
2023/01/13 02:07:44;;;;;;;0.70;0.70;;;;;;;;;;6128694;23;20432;-79
2023/01/13 02:10:13;;;;;;;0.70;0.60;;;;;;;;;;6128760;23;20423;-80
2023/01/13 02:12:41;;;;;;;0.60;0.60;;;;;;;;;;6129215;23;20419;-80
2023/01/13 02:15:15;;;;;;;0.70;0.70;;;;;;;;;;6128198;23;20422;-81
2023/01/13 02:17:52;;;;;;;0.60;0.60;;;;;;;;;;6127564;23;20538;-81
2023/01/13 02:20:35;;;;;;;0.70;0.60;;;;;;;;;;6127866;23;20415;-81
2023/01/13 02:26:30;;;;;;;0.60;0.50;;;;;;;;;;6131247;23;20414;-80
2023/01/13 02:32:04;;;;;;;0.67;0.63;;;;;;;;;;6128823;23;20423;-81
2023/01/13 02:34:37;;;;;;;0.60;0.53;;;;;;;;;;6127713;23;20406;-82
2023/01/13 02:37:13;;;;;;;0.70;0.70;;;;;;;;;;6128391;23;20895;-81
2023/01/13 02:39:47;;;;;;;0.63;0.63;;;;;;;;;;6128270;23;20408;-81
2023/01/13 02:45:18;;;;;;;0.60;0.60;;;;;;;;;;6128750;23;20837;-79
2023/01/13 02:47:54;;;;;;;0.60;0.60;;;;;;;;;;6129322;23;20506;-80
2023/01/13 02:50:27;;;;;;;0.60;0.60;;;;;;;;;;6128878;23;20470;-81
2023/01/13 02:53:03;;;;;;;0.60;0.60;;;;;;;;;;6153998;23;20401;-81
2023/01/13 02:55:36;;;;;;;0.60;0.60;;;;;;;;;;6130520;23;20380;-80
2023/01/13 02:58:04;;;;;;;0.70;0.60;;;;;;;;;;6126972;23;20495;-81
2023/01/13 03:00:32;;;;;;;0.70;0.67;;;;;;;;;;6129320;23;20959;-82
2023/01/13 03:03:02;;;;;;;0.60;0.60;;;;;;;;;;6129468;23;20441;-82
2023/01/13 03:05:35;;;;;;;0.70;0.70;;;;;;;;;;6155183;23;20723;-80
2023/01/13 03:08:14;;;;;;;0.70;0.70;;;;;;;;;;6128674;23;20471;-79
2023/01/13 03:10:56;;;;;;;0.67;0.67;;;;;;;;;;6129374;23;20384;-80
2023/01/13 03:13:46;;;;;;;0.70;0.70;;;;;;;;;;6154988;23;20476;-81
2023/01/13 03:16:19;;;;;;;0.70;0.70;;;;;;;;;;6128611;23;20386;-81
2023/01/13 03:18:51;;;;;;;0.70;0.60;;;;;;;;;;6153706;23;20410;-82
2023/01/13 03:21:24;;;;;;;0.60;0.60;;;;;;;;;;6130052;23;20911;-82
2023/01/13 03:23:58;;;;;;;0.60;0.60;;;;;;;;;;6131282;23;20413;-82
2023/01/13 03:26:36;;;;;;;0.60;0.60;;;;;;;;;;6130224;23;20415;-79
2023/01/13 03:29:08;;;;;;;0.60;0.60;;;;;;;;;;6131118;23;20461;-82
2023/01/13 03:31:43;;;;;;;0.60;0.60;;;;;;;;;;6131103;23;20475;-82
2023/01/13 03:34:19;;;;;;;0.60;0.60;;;;;;;;;;6130804;23;20451;-80
2023/01/13 03:37:01;;;;;;;0.70;0.60;;;;;;;;;;6129575;23;20417;-81
2023/01/13 03:39:35;;;;;;;0.60;0.60;;;;;;;;;;6156807;23;20374;-81
2023/01/13 03:42:11;;;;;;;0.70;0.70;;;;;;;;;;6159947;23;20407;-80
2023/01/13 03:44:47;;;;;;;0.63;0.60;;;;;;;;;;6134766;23;20418;-81
2023/01/13 03:47:21;;;;;;;0.67;0.60;;;;;;;;;;6131598;23;20408;-82
2023/01/13 03:49:56;;;;;;;0.60;0.60;;;;;;;;;;6132954;23;20472;-79
2023/01/13 03:52:34;;;;;;;0.60;0.57;;;;;;;;;;6131826;23;20417;-79
2023/01/13 03:55:07;;;;;;;0.70;0.70;;;;;;;;;;6134271;23;20452;-82
2023/01/13 03:57:39;;;;;;;0.70;0.70;;;;;;;;;;6110482;23;20413;-78
2023/01/13 04:00:11;;;;;;;0.60;0.60;;;;;;;;;;6134141;23;20413;-81
2023/01/13 04:02:44;;;;;;;0.67;0.60;;;;;;;;;;6157722;23;20725;-80
2023/01/13 04:05:13;;;;;;;0.70;0.60;;;;;;;;;;6133084;23;20390;-81
2023/01/13 04:07:45;;;;;;;0.60;0.60;;;;;;;;;;6156559;23;20394;-80
2023/01/13 04:10:15;;;;;;;0.70;0.70;;;;;;;;;;6137171;23;20453;-80
2023/01/13 04:13:00;;;;;;;0.70;0.70;;;;;;;;;;6163799;23;20656;-79
2023/01/13 04:15:28;;;;;;;0.60;0.60;;;;;;;;;;6136381;23;20416;-82
2023/01/13 04:18:00;;;;;;;0.70;0.60;;;;;;;;;;6115627;23;20462;-79
2023/01/13 04:20:28;;;;;;;0.60;0.60;;;;;;;;;;6170122;23;20716;-79
2023/01/13 04:22:55;;;;;;;0.60;0.60;;;;;;;;;;6164814;23;20382;-80
2023/01/13 04:25:22;;;;;;;0.70;0.60;;;;;;;;;;6137904;23;20417;-79
2023/01/13 04:27:49;;;;;;;0.67;0.60;;;;;;;;;;6166102;23;20387;-79
2023/01/13 04:30:16;;;;;;;0.60;0.60;;;;;;;;;;6115355;23;20908;-80
2023/01/13 04:32:43;;;;;;;0.60;0.60;;;;;;;;;;6169796;23;20409;-77
2023/01/13 04:35:10;;;;;;;0.70;0.60;;;;;;;;;;6167346;23;20378;-79
2023/01/13 04:37:38;;;;;;;0.60;0.60;;;;;;;;;;6166940;23;20395;-79
2023/01/13 04:40:06;;;;;;;0.70;0.60;;;;;;;;;;6144449;23;20421;-78
2023/01/13 04:42:32;;;;;;;0.60;0.60;;;;;;;;;;6119935;23;20509;-79
2023/01/13 04:44:59;;;;;;;0.60;0.60;;;;;;;;;;6138630;23;20406;-80
2023/01/13 04:47:26;;;;;;;0.70;0.70;;;;;;;;;;6165977;23;20425;-81
2023/01/13 04:49:53;;;;;;;0.70;0.70;;;;;;;;;;6161472;23;20448;-81
2023/01/13 04:52:20;;;;;;;0.70;0.60;;;;;;;;;;6137046;23;20386;-82
2023/01/13 04:54:48;;;;;;;0.60;0.60;;;;;;;;;;6144882;23;20388;-82
2023/01/13 04:57:14;;;;;;;0.70;0.60;;;;;;;;;;6163539;23;20394;-79
2023/01/13 04:59:41;;;;;;;0.70;0.60;;;;;;;;;;6139004;23;20403;-81
2023/01/13 05:02:08;;;;;;;0.67;0.60;;;;;;;;;;6143344;23;20406;-80
2023/01/13 05:04:36;;;;;;;0.60;0.60;;;;;;;;;;6170599;23;20386;-78
2023/01/13 05:07:03;;;;;;;0.70;0.60;;;;;;;;;;6140028;23;20414;-81
2023/01/13 05:09:30;;;;;;;0.60;0.60;;;;;;;;;;6113795;23;20487;-78
2023/01/13 05:17:31;;;;;;;0.60;0.60;;;;;;;;;;6166311;23;20473;-78
2023/01/13 05:19:57;;;;;;;0.70;0.60;;;;;;;;;;6134734;23;20915;-78
2023/01/13 05:25:20;;;;;;;0.60;0.60;;;;;;;;;;6165518;23;20388;-77
2023/01/13 05:27:49;;;;;;;0.70;0.60;;;;;;;;;;6139378;23;20379;-79
2023/01/13 05:30:16;;;;;;;0.60;0.60;;;;;;;;;;6168021;23;20429;-79
2023/01/13 05:32:43;;;;;;;0.70;0.60;;;;;;;;;;6171666;23;20425;-80
2023/01/13 05:35:09;;;;;;;0.60;0.60;;;;;;;;;;6170572;23;20397;-79
2023/01/13 05:37:36;;;;;;;0.60;0.50;;;;;;;;;;6143634;23;20927;-78
2023/01/13 05:45:57;;;;;;;0.67;0.60;;;;;;;;;;6149308;23;20936;-79
2023/01/13 05:48:25;;;;;;;0.70;0.70;;;;;;;;;;6164625;23;20976;-80
2023/01/13 05:50:52;;;;;;;0.60;0.60;;;;;;;;;;6141724;23;20425;-80
2023/01/13 05:53:20;;;;;;;0.70;0.70;;;;;;;;;;6169243;23;20419;-78
2023/01/13 05:55:47;;;;;;;0.63;0.60;;;;;;;;;;6149533;23;20430;-81
2023/01/13 05:58:17;;;;;;;0.60;0.60;;;;;;;;;;6149210;23;20389;-80
2023/01/13 06:00:43;;;;;;;0.60;0.53;;;;;;;;;;6167473;23;20393;-78
2023/01/13 06:03:10;;;;;;;0.60;0.60;;;;;;;;;;6106961;23;20515;-79
2023/01/13 06:05:39;;;;;;;0.60;0.60;;;;;;;;;;6135481;23;20387;-80
2023/01/13 06:08:06;;;;;;;0.70;0.60;;;;;;;;;;6159628;23;20397;-79
2023/01/13 06:10:34;;;;;;;0.70;0.60;;;;;;;;;;6130848;23;20423;-79
2023/01/13 06:13:01;;;;;;;0.60;0.50;;;;;;;;;;6156079;23;20374;-78
2023/01/13 06:15:29;;;;;;;0.70;0.60;;;;;;;;;;6158271;23;20854;-81
2023/01/13 06:17:56;;;;;;;0.70;0.70;;;;;;;;;;6162599;23;20417;-80
2023/01/13 06:20:23;;;;;;;0.70;0.70;;;;;;;;;;6134990;23;20517;-81
2023/01/13 06:22:51;;;;;;;0.60;0.60;;;;;;;;;;6157855;23;20448;-80
2023/01/13 06:25:21;;;;;;;0.60;0.60;;;;;;;;;;6116446;23;20762;-81
2023/01/13 06:27:49;;;;;;;0.70;0.60;;;;;;;;;;6159474;23;20389;-80
2023/01/13 06:30:16;;;;;;;0.60;0.53;;;;;;;;;;6138612;23;20437;-79
2023/01/13 06:32:47;;;;;;;0.60;0.60;;;;;;;;;;6136864;23;20934;-78
2023/01/13 06:35:15;;;;;;;0.60;0.60;;;;;;;;;;6166487;23;20883;-80
2023/01/13 06:37:43;;;;;;;0.70;0.60;;;;;;;;;;6132816;23;20390;-82
2023/01/13 06:40:11;;;;;;;0.60;0.60;;;;;;;;;;6133944;23;20875;-82
2023/01/13 06:45:25;;;;;;;0.70;0.70;;;;;;;;;;6156567;23;20371;-82
2023/01/13 06:47:55;;;;;;;0.60;0.60;;;;;;;;;;6134188;23;20465;-81
2023/01/13 06:50:22;;;;;;;0.60;0.60;;;;;;;;;;6159530;23;21006;-83
2023/01/13 06:53:06;;;;;;;0.70;0.70;;;;;;;;;;6167544;23;20384;-78
2023/01/13 06:55:33;;;;;;;0.60;0.60;;;;;;;;;;6135900;23;20393;-82
2023/01/13 06:58:00;;;;;;;0.60;0.60;;;;;;;;;;6135687;23;20440;-82
2023/01/13 07:00:26;;;;;;;0.67;0.60;;;;;;;;;;6129637;23;20392;-81
2023/01/13 07:03:03;;;;;;;0.70;0.70;;;;;;;;;;6131967;23;20437;-82
2023/01/13 07:05:32;;;;;;;0.70;0.70;;;;;;;;;;6164953;23;20377;-80
2023/01/13 07:07:59;;;;;;;0.70;0.60;;;;;;;;;;6159443;23;20388;-82
2023/01/13 07:10:26;;;;;;;0.70;0.70;;;;;;;;;;6165185;23;20435;-80
2023/01/13 07:15:38;;;;;;;0.60;0.60;;;;;;;;;;6165095;23;20413;-80
2023/01/13 07:18:10;;;;;;;0.70;0.60;;;;;;;;;;6116405;23;20910;-78
2023/01/13 07:20:37;;;;;;;0.70;0.70;;;;;;;;;;6137554;23;20409;-79
2023/01/13 07:23:03;;;;;;;0.70;0.60;;;;;;;;;;6137723;23;20402;-80
2023/01/13 07:25:34;;;;;;;0.67;0.60;;;;;;;;;;6142169;23;20404;-80
2023/01/13 07:28:00;;;;;;;0.67;0.60;;;;;;;;;;6158778;23;20395;-78
2023/01/13 07:30:28;;;;;;;0.70;0.70;;;;;;;;;;6157362;23;20462;-79
2023/01/13 07:32:54;;;;;;;0.70;0.60;;;;;;;;;;6140938;23;20497;-76
2023/01/13 07:35:22;;;;;;;0.60;0.60;;;;;;;;;;6114962;23;20469;-80
2023/01/13 07:37:49;;;;;;;0.60;0.60;;;;;;;;;;6156647;23;20394;-76
2023/01/13 07:40:16;;;;;;;0.70;0.60;;;;;;;;;;6154001;23;20392;-78
2023/01/13 07:45:32;;;;;;;0.70;0.60;;;;;;;;;;6131462;23;20410;-80
2023/01/13 07:47:58;;;;;;;0.60;0.60;;;;;;;;;;6158104;23;20452;-78
2023/01/13 07:50:27;;;;;;;0.70;0.70;;;;;;;;;;6133389;23;20424;-77
2023/01/13 07:52:56;;;;;;;0.70;0.70;;;;;;;;;;6163016;23;20417;-79
2023/01/13 07:55:23;;;;;;;2.20;2.00;;;;;;;;;;6164927;23;20391;-77
2023/01/13 07:57:50;;;;;;;0.70;0.60;;;;;;;;;;6113084;23;20437;-79
2023/01/13 08:00:18;;;;;;;0.70;0.70;;;;;;;;;;6164236;23;20903;-78
2023/01/13 08:02:45;;;;;;;0.70;0.60;;;;;;;;;;6117990;23;20431;-76
2023/01/13 08:05:12;;;;;;;0.70;0.60;;;;;;;;;;6167843;23;20725;-78
2023/01/13 08:07:44;;;;;;;0.70;0.60;;;;;;;;;;6139561;23;20415;-79
2023/01/13 08:10:10;;;;;;;0.70;0.60;;;;;;;;;;6173029;23;20766;-76
2023/01/13 08:15:23;;;;;;;0.70;0.60;;;;;;;;;;6168620;23;20407;-77
2023/01/13 08:17:52;;;;;;;0.60;0.60;;;;;;;;;;6122806;23;20433;-76
2023/01/13 08:20:19;;;;;;;0.70;0.70;;;;;;;;;;6144352;23;20436;-76
2023/01/13 08:22:48;;;;;;;0.70;0.60;;;;;;;;;;6146287;23;20400;-76
2023/01/13 08:25:14;;;;;;;0.70;0.60;;;;;;;;;;6167920;23;20460;-78
2023/01/13 08:27:41;;;;;;;0.70;0.70;;;;;;;;;;6145941;23;20901;-78
2023/01/13 08:30:08;;;;;;;0.70;0.70;;;;;;;;;;6169182;23;20429;-77
2023/01/13 08:32:35;;;;;;;0.70;0.70;;;;;;;;;;6166004;23;20866;-77
2023/01/13 08:35:02;;;;;;;0.70;0.70;;;;;;;;;;6150500;23;20381;-77
2023/01/13 08:37:29;;;;;;;0.60;0.60;;;;;;;;;;6148555;23;20381;-76
2023/01/13 08:39:57;;;;;;;0.70;0.60;;;;;;;;;;6169785;23;20391;-76
2023/01/13 08:42:25;;;;;;;0.70;0.60;;;;;;;;;;6146767;23;20422;-74
2023/01/13 08:44:53;;;;;;;0.60;0.60;;;;;;;;;;6139504;23;20429;-79
2023/01/13 08:47:20;;;;;;;0.70;0.60;;;;;;;;;;6143969;23;20442;-75
2023/01/13 08:49:46;;;;;;;0.70;0.70;;;;;;;;;;6167807;23;20414;-74
2023/01/13 08:52:13;;;;;;;0.70;0.70;;;;;;;;;;6166212;23;20417;-76
2023/01/13 08:54:40;;;;;;;0.70;0.60;;;;;;;;;;6162993;23;20399;-76
2023/01/13 08:57:09;;;;;;;0.70;0.60;;;;;;;;;;6160964;23;20446;-75
2023/01/13 08:59:35;;;;;;;0.60;0.60;;;;;;;;;;6164914;23;20397;-77
2023/01/13 09:02:03;;;;;;;0.70;0.60;;;;;;;;;;6118051;23;20743;-78
2023/01/13 09:04:30;;;;;;;0.70;0.70;;;;;;;;;;6166821;23;20381;-77
2023/01/13 09:06:57;;;;;;;0.70;0.60;;;;;;;;;;6170022;23;20704;-76
2023/01/13 09:09:26;;;;;;;0.60;0.60;;;;;;;;;;6135171;23;20728;-75
2023/01/13 09:14:40;;;;;;;0.70;0.70;;;;;;;;;;6153620;23;20388;-77
2023/01/13 09:17:07;;;;;;;0.70;0.60;;;;;;;;;;6161542;23;20375;-76
2023/01/13 09:19:34;;;;;;;0.60;0.60;;;;;;;;;;6164652;23;20533;-76
2023/01/13 09:22:01;;;;;;;0.70;0.60;;;;;;;;;;6164608;23;20386;-77
2023/01/13 09:24:28;;;;;;;0.60;0.60;;;;;;;;;;6144632;23;20745;-77
2023/01/13 09:26:56;;;;;;;0.60;0.50;;;;;;;;;;6141199;23;20714;-78
2023/01/13 09:29:23;;;;;;;0.70;0.60;;;;;;;;;;6165873;23;20395;-78
2023/01/13 09:31:51;;;;;;;0.63;0.60;;;;;;;;;;6141000;23;20456;-79
2023/01/13 09:37:05;;;;;;;0.60;0.60;;;;;;;;;;6149648;23;20399;-78
2023/01/13 09:39:32;;;;;;;0.70;0.70;;;;;;;;;;6173250;23;20616;-78
2023/01/13 09:44:51;;;;;;;0.60;0.60;;;;;;;;;;6148837;23;20402;-77
2023/01/13 09:47:21;;;;;;;1.43;1.33;;;;;;;;;;6171661;23;20422;-74
2023/01/13 09:49:49;;;;;;;0.70;0.70;;;;;;;;;;6143456;23;20739;-77
2023/01/13 09:52:20;;;;;;;0.70;0.60;;;;;;;;;;6144396;23;20386;-74
2023/01/13 09:54:54;;;;;;;0.67;0.60;;;;;;;;;;6173515;23;20432;-78
2023/01/13 09:57:21;;;;;;;0.70;0.70;;;;;;;;;;6172992;23;20405;-78
2023/01/13 09:59:48;;;;;;;1.60;1.50;;;;;;;;;;6164958;23;20407;-80
2023/01/13 10:02:25;;;;;;;2.40;2.20;;;;;;;;;;6167066;23;20457;-77
2023/01/13 10:05:03;;;;;;;0.70;0.60;;;;;;;;;;6115118;23;20425;-78
2023/01/13 10:07:31;;;;;;;0.80;0.77;;;;;;;;;;6162379;23;20442;-79
2023/01/13 10:10:00;;;;;;;0.70;0.60;;;;;;;;;;6165184;23;20408;-76
2023/01/13 10:15:15;;;;;;;0.70;0.70;;;;;;;;;;6136839;23;20414;-78
2023/01/13 10:17:46;;;;;;;0.73;0.73;;;;;;;;;;6170270;23;20460;-80
2023/01/13 10:20:16;;;;;;;0.70;0.70;;;;;;;;;;6146311;23;20444;-79
2023/01/13 10:22:53;;;;;;;0.70;0.60;;;;;;;;;;6136081;23;20453;-77
2023/01/13 10:25:23;;;;;;;0.70;0.60;;;;;;;;;;6138714;23;20404;-76
2023/01/13 10:27:51;;;;;;;0.70;0.60;;;;;;;;;;6141073;23;20410;-78
2023/01/13 10:30:20;;;;;;;0.80;0.80;;;;;;;;;;6165638;23;20491;-79
2023/01/13 10:32:51;;;;;;;0.70;0.70;;;;;;;;;;6133426;23;20726;-78
2023/01/13 10:35:40;;;;;;;0.70;0.70;;;;;;;;;;6138907;23;20405;-78
2023/01/13 10:38:14;;;;;;;0.70;0.70;;;;;;;;;;6157195;23;20398;-78
2023/01/13 10:40:45;;;;;;;0.70;0.70;;;;;;;;;;6135647;23;20425;-76
2023/01/13 10:43:13;;;;;;;0.70;0.70;;;;;;;;;;6160908;23;20762;-77
2023/01/13 10:45:40;;;;;;;0.70;0.70;;;;;;;;;;6165563;23;20392;-76
2023/01/13 10:48:12;;;;;;;0.70;0.60;;;;;;;;;;6135383;23;20433;-77
2023/01/13 10:50:40;;;;;;;0.70;0.70;;;;;;;;;;6165238;23;20732;-77
2023/01/13 10:53:16;;;;;;;0.70;0.60;;;;;;;;;;6143921;23;20375;-76
2023/01/13 10:55:56;;;;;;;0.70;0.70;;;;;;;;;;6167334;23;20380;-77
2023/01/13 10:58:23;;;;;;;0.70;0.70;;;;;;;;;;6160868;23;20378;-77
2023/01/13 11:00:57;;;;;;;0.70;0.70;;;;;;;;;;6163818;23;20395;-77
2023/01/13 11:03:33;;;;;;;0.70;0.70;;;;;;;;;;6112903;23;20434;-76
2023/01/13 11:05:59;;;;;;;1.13;1.03;;;;;;;;;;6134907;23;20412;-77
2023/01/13 11:08:29;;;;;;;0.80;0.80;;;;;;;;;;6135645;23;20461;-78
2023/01/13 11:10:56;;;;;;;0.70;0.70;;;;;;;;;;6140631;23;20477;-76
2023/01/13 11:13:28;;;;;;;0.70;0.63;;;;;;;;;;6142322;23;20412;-77
2023/01/13 11:15:58;;;;;;;0.70;0.70;;;;;;;;;;6173192;22;20431;-77
2023/01/13 11:18:29;;;;;;;1.00;1.00;;;;;;;;;;6200820;23;20727;-76
2023/01/13 11:20:58;;;;;;;0.70;0.70;;;;;;;;;;6201231;23;20381;-77
2023/01/13 11:23:29;;;;;;;0.70;0.70;;;;;;;;;;6173310;23;20404;-75
2023/01/13 11:25:59;;;;;;;0.70;0.60;;;;;;;;;;6167467;23;20410;-77
2023/01/13 11:28:44;;;;;;;0.70;0.70;;;;;;;;;;6171887;23;20375;-77
2023/01/13 11:31:14;;;;;;;0.80;0.80;;;;;;;;;;6194215;23;20504;-79
2023/01/13 11:33:45;;;;;;;1.13;1.03;;;;;;;;;;6175380;23;20432;-78
2023/01/13 11:36:14;;;;;;;0.70;0.67;;;;;;;;;;6171339;23;21124;-77
2023/01/13 11:38:46;;;;;;;0.70;0.70;;;;;;;;;;6164566;23;20449;-77
2023/01/13 11:41:23;;;;;;;0.70;0.60;;;;;;;;;;6200875;23;20407;-78
2023/01/13 11:43:52;;;;;;;0.70;0.70;;;;;;;;;;6173590;23;20381;-79
2023/01/13 11:46:22;;;;;;;0.70;0.60;;;;;;;;;;6196953;23;20410;-75
2023/01/13 11:48:55;;;;;;;0.70;0.70;;;;;;;;;;6174759;23;20439;-78
2023/01/13 11:51:28;;;;;;;0.70;0.70;;;;;;;;;;6206007;23;20428;-76
2023/01/13 11:54:03;;;;;;;0.70;0.70;;;;;;;;;;6210655;22;20420;-77
2023/01/13 11:56:39;;;;;;;0.70;0.70;;;;;;;;;;6176197;23;20741;-76
2023/01/13 11:59:23;;;;;;;0.70;0.70;;;;;;;;;;6198969;23;20440;-75
2023/01/13 12:01:59;;;;;;;0.70;0.70;;;;;;;;;;6203696;23;20369;-77
2023/01/13 12:04:31;;;;;;;0.80;0.80;;;;;;;;;;6199113;23;20839;-76
2023/01/13 12:07:00;;;;;;;0.70;0.70;;;;;;;;;;6199926;23;20384;-76
2023/01/13 12:09:32;;;;;;;0.70;0.70;;;;;;;;;;6165102;23;20404;-75
2023/01/13 12:12:26;;;;;;;0.80;0.80;;;;;;;;;;6160488;23;20421;-76
2023/01/13 12:14:59;;;;;;;0.80;0.70;;;;;;;;;;6165642;23;20739;-75
2023/01/13 12:17:32;;;;;;;0.77;0.77;;;;;;;;;;6163922;23;21029;-74
2023/01/13 12:20:11;;;;;;;0.70;0.70;;;;;;;;;;6186613;23;20859;-75
2023/01/13 12:22:38;;;;;;;0.70;0.70;;;;;;;;;;6190172;23;20444;-76
2023/01/13 12:25:12;;;;;;;0.80;0.80;;;;;;;;;;6192867;23;20428;-79
2023/01/13 12:27:40;;;;;;;0.70;0.60;;;;;;;;;;6170948;23;20867;-82
2023/01/13 12:30:19;;;;;;;0.70;0.60;;;;;;;;;;6166943;23;20408;-76
2023/01/13 12:32:47;;;;;;;0.70;0.70;;;;;;;;;;6166310;23;20449;-77
2023/01/13 12:35:24;;;;;;;0.70;0.70;;;;;;;;;;6170917;23;20419;-78
2023/01/13 12:37:57;;;;;;;0.70;0.70;;;;;;;;;;6166267;23;20489;-76
2023/01/13 12:40:28;;;;;;;0.70;0.60;;;;;;;;;;6169656;23;20405;-76
2023/01/13 12:45:47;;;;;;;0.70;0.70;;;;;;;;;;6171743;23;20751;-77
2023/01/13 12:48:34;;;;;;;0.77;0.77;;;;;;;;;;6163980;23;20420;-77
2023/01/13 12:51:04;;;;;;;0.70;0.70;;;;;;;;;;6169976;23;20807;-75
2023/01/13 12:53:33;;;;;;;0.70;0.70;;;;;;;;;;6168373;23;20409;-76
2023/01/13 12:56:20;;;;;;;0.70;0.70;;;;;;;;;;6205986;23;20454;-78
2023/01/13 12:58:47;;;;;;;0.70;0.70;;;;;;;;;;6155345;23;20395;-74
2023/01/13 13:01:14;;;;;;;0.70;0.70;;;;;;;;;;6169700;23;20404;-74
2023/01/13 13:04:01;;;;;;;0.80;0.80;;;;;;;;;;6203630;23;20757;-76
2023/01/13 13:06:30;;;;;;;0.70;0.70;;;;;;;;;;6198073;23;20424;-75
2023/01/13 13:08:59;;;;;;;0.80;0.80;;;;;;;;;;6167551;23;20414;-76
2023/01/13 13:14:36;;;;;;;0.70;0.63;;;;;;;;;;6156222;23;20405;-76
2023/01/13 13:17:04;;;;;;;0.87;0.87;;;;;;;;;;6133745;23;20416;-77
2023/01/13 13:19:45;;;;;;;0.70;0.70;;;;;;;;;;6157775;23;20754;-76
2023/01/13 13:22:21;;;;;;;0.70;0.60;;;;;;;;;;6157181;23;20437;-78
2023/01/13 13:25:11;;;;;;;0.70;0.70;;;;;;;;;;6156301;23;20411;-74
2023/01/13 13:27:39;;;;;;;0.70;0.70;;;;;;;;;;6151824;23;20746;-76
2023/01/13 13:30:12;;;;;;;0.70;0.60;;;;;;;;;;6156552;23;21170;-77
2023/01/13 13:32:53;;;;;;;0.60;0.60;;;;;;;;;;6156331;23;20490;-77
2023/01/13 13:35:26;;;;;;;0.70;0.70;;;;;;;;;;6182692;23;20835;-77
2023/01/13 13:49:09;;;;;;;0.60;0.60;;;;;;;;;;6155624;23;20429;-76
2023/01/13 13:51:41;;;;;;;0.60;0.60;;;;;;;;;;6155617;23;20438;-76
2023/01/13 13:54:10;;;;;;;0.60;0.60;;;;;;;;;;6182684;23;20377;-77
2023/01/13 13:56:39;;;;;;;0.70;0.70;;;;;;;;;;6182568;23;20385;-76
2023/01/13 13:59:07;;;;;;;0.70;0.67;;;;;;;;;;6156336;23;20409;-76
2023/01/13 14:01:36;;;;;;;0.70;0.70;;;;;;;;;;6181615;23;20366;-74
2023/01/13 14:04:04;;;;;;;0.70;0.70;;;;;;;;;;6155077;23;20431;-75
2023/01/13 14:06:31;;;;;;;0.60;0.60;;;;;;;;;;6154073;23;20388;-74
2023/01/13 14:08:58;;;;;;;0.60;0.60;;;;;;;;;;6180671;23;20402;-76
2023/01/13 14:11:28;;;;;;;0.70;0.60;;;;;;;;;;6154436;23;20381;-77
2023/01/13 14:14:02;;;;;;;0.60;0.60;;;;;;;;;;6180483;23;20463;-76
2023/01/13 14:16:29;;;;;;;0.60;0.60;;;;;;;;;;6180425;23;20682;-77
2023/01/13 14:18:56;;;;;;;0.60;0.60;;;;;;;;;;6179821;23;20481;-76
2023/01/13 14:21:23;;;;;;;0.60;0.60;;;;;;;;;;6181404;23;20393;-78
2023/01/13 14:23:51;;;;;;;0.70;0.70;;;;;;;;;;6181213;23;20792;-77
2023/01/13 14:26:22;;;;;;;0.70;0.60;;;;;;;;;;6156072;23;20424;-77
2023/01/13 14:28:51;;;;;;;0.70;0.70;;;;;;;;;;6154619;23;20464;-77
2023/01/13 14:31:18;;;;;;;0.70;0.70;;;;;;;;;;6182039;23;20405;-78
2023/01/13 14:33:47;;;;;;;0.60;0.60;;;;;;;;;;6155346;23;20863;-77
2023/01/13 14:36:15;;;;;;;0.70;0.70;;;;;;;;;;6181742;23;20371;-78
2023/01/13 14:38:42;;;;;;;0.67;0.67;;;;;;;;;;6155524;23;20563;-78
2023/01/13 14:41:17;;;;;;;0.60;0.60;;;;;;;;;;6182027;23;20375;-76
2023/01/13 14:43:45;;;;;;;0.70;0.60;;;;;;;;;;6130606;23;20455;-77
2023/01/13 14:46:16;;;;;;;0.60;0.60;;;;;;;;;;6156452;23;20898;-76
2023/01/13 14:48:46;;;;;;;0.70;0.70;;;;;;;;;;6156067;23;20551;-77
2023/01/13 14:51:20;;;;;;;0.60;0.60;;;;;;;;;;6182276;23;20388;-77
2023/01/13 14:53:47;;;;;;;0.70;0.60;;;;;;;;;;6155454;23;20411;-77
2023/01/13 14:56:33;;;;;;;0.60;0.60;;;;;;;;;;6182056;23;20830;-76
2023/01/13 14:59:01;;;;;;;0.80;0.80;;;;;;;;;;6182034;23;20432;-79
2023/01/13 15:01:39;;;;;;;0.70;0.60;;;;;;;;;;6156366;23;20392;-77
2023/01/13 15:04:16;;;;;;;0.70;0.70;;;;;;;;;;6182486;23;20417;-77
2023/01/13 15:06:45;;;;;;;0.70;0.70;;;;;;;;;;6182864;23;20380;-77
2023/01/13 15:09:12;;;;;;;0.67;0.60;;;;;;;;;;6183099;23;20464;-78
2023/01/13 15:11:39;;;;;;;0.70;0.70;;;;;;;;;;6182446;23;20415;-74
2023/01/13 15:14:09;;;;;;;0.60;0.60;;;;;;;;;;6155422;23;20396;-74
2023/01/13 15:16:37;;;;;;;0.70;0.70;;;;;;;;;;6181819;23;20412;-78
2023/01/13 15:19:04;;;;;;;0.70;0.60;;;;;;;;;;6155868;23;20408;-75
2023/01/13 15:21:30;;;;;;;0.70;0.60;;;;;;;;;;6130736;23;20736;-76
2023/01/13 15:23:58;;;;;;;0.70;0.70;;;;;;;;;;6154833;23;20393;-76
2023/01/13 15:26:26;;;;;;;0.70;0.70;;;;;;;;;;6182043;23;20415;-76
2023/01/13 15:28:53;;;;;;;0.60;0.60;;;;;;;;;;6182185;23;20396;-76
2023/01/13 15:31:20;;;;;;;0.70;0.70;;;;;;;;;;6182173;23;20472;-75
2023/01/13 15:34:09;;;;;;;0.60;0.60;;;;;;;;;;6159442;23;20894;-77
2023/01/13 15:36:36;;;;;;;0.70;0.60;;;;;;;;;;6182816;23;20410;-76
2023/01/13 15:39:10;;;;;;;0.67;0.60;;;;;;;;;;6158770;23;20378;-76
2023/01/13 15:47:08;;;;;;;0.60;0.60;;;;;;;;;;6159428;23;20416;-76
2023/01/13 15:49:38;;;;;;;0.70;0.70;;;;;;;;;;6183871;23;20424;-76
2023/01/13 15:52:13;;;;;;;0.60;0.60;;;;;;;;;;6157006;23;20846;-76
2023/01/13 15:54:40;;;;;;;0.60;0.60;;;;;;;;;;6157871;23;20396;-75
2023/01/13 15:57:07;;;;;;;0.60;0.60;;;;;;;;;;6157843;23;20412;-75
2023/01/13 15:59:35;;;;;;;0.60;0.60;;;;;;;;;;6183751;23;20388;-75
2023/01/13 16:02:02;;;;;;;0.70;0.70;;;;;;;;;;6183794;23;20370;-76
2023/01/13 16:04:29;;;;;;;0.60;0.60;;;;;;;;;;6158722;23;20418;-76
2023/01/13 16:06:58;;;;;;;0.60;0.60;;;;;;;;;;6160152;23;20389;-76
2023/01/13 16:09:24;;;;;;;0.60;0.60;;;;;;;;;;6185535;23;20399;-75
2023/01/13 16:11:51;;;;;;;0.70;0.60;;;;;;;;;;6185262;23;20692;-77